Time;durP1;ratioP1;P1;durP2;ratioP2;P2;SDS_P1;SDS_P2;PMS_P1;PMS_P2;Temp;Humidity;BMP_temperature;BMP_pressure;BME280_temperature;BME280_humidity;BME280_pressure;Samples;Min_cycle;Max_cycle;Signal;HPM_P1;HPM_P2
2022/02/02 00:04:26;;;;;;;18.70;5.67;;;7.90;99.90;;;;;;5086304;28;20584;-41
2022/02/02 00:09:33;;;;;;;19.93;5.33;;;8.00;99.90;;;;;;5085874;28;20852;-40
2022/02/02 00:16:59;;;;;;;28.33;6.10;;;8.00;99.90;;;;;;5087382;28;20426;-41
2022/02/02 00:22:09;;;;;;;26.00;5.70;;;8.10;99.90;;;;;;5079324;28;20528;-40
2022/02/02 00:25:21;;;;;;;25.20;6.00;;;8.00;99.90;;;;;;5091061;28;20495;-41
2022/02/02 00:27:25;;;;;;;22.00;6.77;;;8.10;99.90;;;;;;5071782;28;20576;-40
2022/02/02 00:29:56;;;;;;;23.30;6.17;;;8.00;99.90;;;;;;5090492;28;20935;-40
2022/02/02 00:34:50;;;;;;;25.80;5.20;;;8.00;99.90;;;;;;5091109;28;20418;-41
2022/02/02 00:37:16;;;;;;;23.40;5.83;;;8.10;99.90;;;;;;5080354;28;20441;-40
2022/02/02 00:39:42;;;;;;;23.83;5.67;;;8.00;99.90;;;;;;5084948;28;20194;-40
2022/02/02 00:42:08;;;;;;;19.50;5.40;;;8.00;99.90;;;;;;5090824;28;20453;-41
2022/02/02 00:44:40;;;;;;;22.10;6.80;;;8.00;99.90;;;;;;5090633;28;20462;-40
2022/02/02 00:47:06;;;;;;;19.30;5.30;;;8.00;99.90;;;;;;5090969;28;20505;-41
2022/02/02 00:49:32;;;;;;;21.87;6.50;;;8.00;99.90;;;;;;5090627;28;20454;-41
2022/02/02 00:51:59;;;;;;;14.83;4.57;;;7.90;99.90;;;;;;5082648;28;20255;-41
2022/02/02 00:54:29;;;;;;;25.60;5.33;;;8.10;99.90;;;;;;5090439;28;20450;-40
2022/02/02 00:56:55;;;;;;;20.53;4.93;;;8.00;99.90;;;;;;5090678;28;20548;-40
2022/02/02 00:59:25;;;;;;;30.33;6.87;;;8.10;99.90;;;;;;5090232;28;20426;-41
2022/02/02 01:01:52;;;;;;;24.43;7.23;;;8.00;99.90;;;;;;5090183;28;20940;-41
2022/02/02 01:04:17;;;;;;;20.13;5.60;;;8.00;99.90;;;;;;5090530;28;20410;-41
2022/02/02 01:06:53;;;;;;;24.90;6.30;;;7.90;99.90;;;;;;5078492;28;20470;-41
2022/02/02 01:09:26;;;;;;;34.70;6.17;;;8.00;99.90;;;;;;5087627;28;20731;-40
2022/02/02 01:28:34;;;;;;;14.07;4.30;;;7.80;99.90;;;;;;5066237;28;20485;-41
2022/02/02 01:31:00;;;;;;;17.23;4.57;;;7.60;99.90;;;;;;5088887;28;20920;-41
2022/02/02 01:33:27;;;;;;;16.83;4.90;;;7.60;99.90;;;;;;5090179;28;20742;-41
2022/02/02 01:35:53;;;;;;;17.80;4.23;;;7.70;99.90;;;;;;5085759;28;20800;-40
2022/02/02 01:38:20;;;;;;;18.73;4.60;;;7.60;99.90;;;;;;5080258;28;20428;-40
2022/02/02 01:40:52;;;;;;;24.20;6.00;;;7.70;99.90;;;;;;5089440;28;20833;-40
2022/02/02 01:43:26;;;;;;;21.60;5.47;;;7.70;99.90;;;;;;5089569;28;20449;-41
2022/02/02 01:45:56;;;;;;;21.50;5.60;;;7.50;99.90;;;;;;5089830;28;20934;-42
2022/02/02 01:56:02;;;;;;;21.40;5.13;;;7.70;99.90;;;;;;5089539;28;20576;-41
2022/02/02 02:01:13;;;;;;;25.00;5.60;;;7.80;99.90;;;;;;5088822;28;20429;-42
2022/02/02 02:03:39;;;;;;;26.80;7.20;;;7.70;99.90;;;;;;5089626;28;20438;-42
2022/02/02 02:06:06;;;;;;;20.50;5.87;;;7.80;99.90;;;;;;5085493;28;20473;-40
2022/02/02 02:08:34;;;;;;;28.17;6.53;;;7.80;99.90;;;;;;5085033;28;20518;-40
2022/02/02 02:11:02;;;;;;;21.63;6.03;;;7.80;99.90;;;;;;5088639;28;20703;-40
2022/02/02 02:16:20;;;;;;;24.67;7.50;;;7.60;99.90;;;;;;5089383;28;20878;-41
2022/02/02 02:18:45;;;;;;;26.73;7.73;;;7.80;99.90;;;;;;5088874;28;20608;-40
2022/02/02 02:21:14;;;;;;;25.73;5.80;;;7.70;99.90;;;;;;5084127;28;20189;-43
2022/02/02 02:23:41;;;;;;;27.27;7.33;;;7.70;99.90;;;;;;5080683;28;20191;-40
2022/02/02 02:26:08;;;;;;;32.73;7.00;;;7.70;99.90;;;;;;5087300;28;20836;-40
2022/02/02 02:28:49;;;;;;;22.97;6.47;;;7.90;99.90;;;;;;5088841;28;20501;-43
2022/02/02 02:31:27;;;;;;;25.50;6.07;;;7.60;99.90;;;;;;5088096;28;20425;-40
2022/02/02 03:14:41;;;;;;;21.27;6.50;;;7.80;99.90;;;;;;5087838;28;20777;-40
2022/02/02 03:50:12;;;;;;;28.60;7.07;;;7.40;99.90;;;;;;5086748;28;20426;-40
2022/02/02 03:53:16;;;;;;;26.33;6.83;;;7.50;99.90;;;;;;5079930;28;20465;-41
2022/02/02 04:00:41;;;;;;;25.83;7.07;;;7.40;99.90;;;;;;5085380;28;20483;-40
2022/02/02 04:08:24;;;;;;;32.60;6.90;;;7.50;99.90;;;;;;5080641;28;20468;-40
2022/02/02 04:10:49;;;;;;;26.57;6.53;;;7.50;99.90;;;;;;5084328;28;20183;-40
2022/02/02 04:13:27;;;;;;;24.80;6.80;;;7.50;99.90;;;;;;5087402;28;20427;-41
2022/02/02 04:37:52;;;;;;;27.40;7.43;;;7.50;99.90;;;;;;5080221;28;20466;-40
2022/02/02 04:51:40;;;;;;;22.77;6.30;;;7.40;99.90;;;;;;5086370;28;20418;-43
2022/02/02 04:57:27;;;;;;;36.03;8.20;;;7.50;99.90;;;;;;5086235;28;20490;-40
2022/02/02 05:10:18;;;;;;;23.83;7.00;;;7.50;99.90;;;;;;5085191;28;20498;-44
2022/02/02 05:52:09;;;;;;;22.20;5.07;;;7.10;99.90;;;;;;5089386;28;20928;-40
2022/02/02 05:54:35;;;;;;;22.03;5.73;;;7.10;99.90;;;;;;5074205;28;20438;-43
2022/02/02 05:57:02;;;;;;;18.77;6.47;;;7.10;99.90;;;;;;5089247;28;20575;-41
2022/02/02 05:59:32;;;;;;;23.83;5.83;;;7.10;99.90;;;;;;5089798;28;20429;-41
2022/02/02 06:01:58;;;;;;;22.33;4.83;;;7.10;99.90;;;;;;5089169;28;20723;-41
2022/02/02 06:04:29;;;;;;;20.90;6.07;;;6.90;99.90;;;;;;5089330;28;20431;-43
2022/02/02 06:07:01;;;;;;;19.00;5.43;;;7.00;99.90;;;;;;5087701;28;20548;-41
2022/02/02 06:09:33;;;;;;;23.00;5.67;;;7.20;99.90;;;;;;5079750;28;20430;-41
2022/02/02 06:11:59;;;;;;;14.60;5.60;;;7.30;99.90;;;;;;5082687;28;20430;-40
2022/02/02 06:14:28;;;;;;;21.07;5.73;;;7.10;99.90;;;;;;5089157;28;20418;-40
2022/02/02 06:17:01;;;;;;;17.87;4.70;;;7.00;99.90;;;;;;5089496;28;20434;-43
2022/02/02 06:19:27;;;;;;;24.20;5.43;;;7.30;99.90;;;;;;5088803;28;20473;-41
2022/02/02 06:22:17;;;;;;;29.00;6.63;;;7.00;99.90;;;;;;5087604;28;20912;-41
2022/02/02 06:24:52;;;;;;;21.43;4.90;;;7.20;99.90;;;;;;5067833;28;20203;-41
2022/02/02 06:27:26;;;;;;;16.43;4.97;;;6.90;99.90;;;;;;5088826;28;20472;-40
2022/02/02 06:30:05;;;;;;;21.33;3.70;;;7.30;99.90;;;;;;5087894;28;20787;-40
2022/02/02 06:32:48;;;;;;;18.20;3.60;;;7.10;99.90;;;;;;5089313;28;20547;-41
2022/02/02 06:35:15;;;;;;;8.90;3.03;;;7.20;99.90;;;;;;5088880;28;20433;-40
2022/02/02 06:37:41;;;;;;;13.30;3.10;;;7.00;99.90;;;;;;5088251;28;20556;-40
2022/02/02 06:40:08;;;;;;;9.57;2.77;;;7.00;99.90;;;;;;5078933;28;20865;-43
2022/02/02 06:42:36;;;;;;;10.47;2.77;;;7.10;99.90;;;;;;5088440;28;20431;-40
2022/02/02 06:45:03;;;;;;;14.83;3.37;;;7.10;99.90;;;;;;5088398;28;20869;-40
2022/02/02 06:47:30;;;;;;;12.63;2.90;;;7.10;99.90;;;;;;5088831;28;20489;-42
2022/02/02 06:52:49;;;;;;;15.33;3.73;;;7.30;99.90;;;;;;5088533;28;20471;-41
2022/02/02 06:55:30;;;;;;;14.93;3.07;;;7.30;99.90;;;;;;5078127;28;20450;-43
2022/02/02 06:58:05;;;;;;;9.70;4.27;;;7.00;99.90;;;;;;5087115;28;20934;-44
2022/02/02 07:00:46;;;;;;;13.60;2.70;;;7.00;99.90;;;;;;5087798;28;20421;-40
2022/02/02 07:09:00;;;;;;;7.77;2.30;;;7.00;99.90;;;;;;5084377;28;20519;-43
2022/02/02 07:11:41;;;;;;;16.43;2.97;;;7.10;99.90;;;;;;5084996;28;21015;-41
2022/02/02 07:14:20;;;;;;;11.50;2.20;;;7.10;99.90;;;;;;5087947;28;20422;-41
2022/02/02 07:27:13;;;;;;;11.67;3.37;;;7.20;99.90;;;;;;5087582;28;20251;-42
2022/02/02 07:32:18;;;;;;;18.17;3.60;;;7.20;99.90;;;;;;5087514;28;20513;-44
2022/02/02 07:37:32;;;;;;;12.60;3.40;;;7.00;99.90;;;;;;5086457;28;20908;-40
2022/02/02 07:40:02;;;;;;;11.60;3.17;;;7.10;99.90;;;;;;5076136;28;20430;-41
2022/02/02 07:42:30;;;;;;;10.30;4.10;;;6.80;99.90;;;;;;5087403;28;20872;-41
2022/02/02 07:45:08;;;;;;;14.67;3.67;;;7.00;99.90;;;;;;5087142;28;20430;-42
2022/02/02 07:47:38;;;;;;;19.90;4.50;;;6.80;99.90;;;;;;5087503;28;20833;-40
2022/02/02 07:50:05;;;;;;;15.93;3.87;;;6.70;99.90;;;;;;5086867;28;20417;-40
2022/02/02 07:52:32;;;;;;;11.93;2.73;;;6.90;99.90;;;;;;5086948;28;20509;-41
2022/02/02 07:55:01;;;;;;;13.37;3.67;;;7.00;99.90;;;;;;5080137;28;20442;-40
2022/02/02 07:57:28;;;;;;;15.30;3.80;;;7.00;99.90;;;;;;5086317;28;20457;-41
2022/02/02 08:00:03;;;;;;;17.53;4.60;;;7.00;99.90;;;;;;5086448;28;20418;-41
2022/02/02 08:05:04;;;;;;;19.03;4.57;;;7.20;99.90;;;;;;5085249;28;20571;-40
2022/02/02 08:07:40;;;;;;;15.00;4.47;;;7.20;99.90;;;;;;5084202;28;20458;-40
2022/02/02 08:10:19;;;;;;;12.57;4.20;;;7.10;99.90;;;;;;5077535;28;21107;-41
2022/02/02 08:12:52;;;;;;;15.50;5.27;;;7.20;99.90;;;;;;5087011;28;20422;-40
2022/02/02 08:15:20;;;;;;;10.70;4.60;;;7.40;99.90;;;;;;5086626;28;20693;-41
2022/02/02 08:17:49;;;;;;;19.80;4.70;;;7.10;99.90;;;;;;5084659;28;20487;-41
2022/02/02 08:20:15;;;;;;;16.97;4.90;;;7.10;99.90;;;;;;5086396;28;20406;-40
2022/02/02 08:22:41;;;;;;;14.83;6.00;;;7.20;99.90;;;;;;5086639;28;20426;-41
2022/02/02 08:25:09;;;;;;;17.00;5.20;;;7.10;99.90;;;;;;5076602;28;20443;-40
2022/02/02 08:27:40;;;;;;;19.10;4.50;;;7.10;99.90;;;;;;5087099;28;20458;-40
2022/02/02 08:30:08;;;;;;;14.67;3.80;;;7.40;99.90;;;;;;5086409;28;20927;-41
2022/02/02 08:32:42;;;;;;;20.53;5.20;;;7.10;99.90;;;;;;5087689;28;20827;-43
2022/02/02 08:35:09;;;;;;;11.90;4.50;;;7.10;99.90;;;;;;5086892;28;20452;-42
2022/02/02 08:37:37;;;;;;;15.87;4.27;;;7.00;99.90;;;;;;5087107;28;20430;-41
2022/02/02 08:42:48;;;;;;;15.63;4.23;;;7.10;99.90;;;;;;5086359;28;21030;-40
2022/02/02 08:45:27;;;;;;;20.20;4.67;;;7.60;99.90;;;;;;5090195;28;20509;-41
2022/02/02 08:47:58;;;;;;;15.93;5.10;;;7.40;99.90;;;;;;5090020;28;20219;-40
2022/02/02 08:50:41;;;;;;;16.27;5.20;;;7.30;99.90;;;;;;5089404;28;20422;-41
2022/02/02 08:58:38;;;;;;;16.00;4.70;;;7.70;99.90;;;;;;5089905;28;20497;-41
2022/02/02 09:01:13;;;;;;;14.30;4.37;;;7.80;99.90;;;;;;5089901;28;20430;-41
2022/02/02 09:06:43;;;;;;;20.93;4.67;;;7.60;99.90;;;;;;5027200;28;20753;-41
2022/02/02 09:09:18;;;;;;;16.23;4.07;;;7.80;99.90;;;;;;5026783;28;20587;-40
2022/02/02 09:20:19;;;;;;;12.53;4.27;;;7.70;99.90;;;;;;5089868;28;20491;-40
2022/02/02 09:36:18;;;;;;;14.57;4.07;;;7.80;99.90;;;;;;5090529;28;20788;-44
2022/02/02 09:38:44;;;;;;;15.07;4.03;;;7.70;99.90;;;;;;5089919;28;20454;-42
2022/02/02 09:43:45;;;;;;;9.77;3.37;;;7.70;99.90;;;;;;5088846;28;20237;-41
2022/02/02 09:46:15;;;;;;;19.27;5.37;;;7.80;99.90;;;;;;5090034;28;20434;-40
2022/02/02 09:48:49;;;;;;;12.17;3.70;;;8.00;99.90;;;;;;5089506;28;20501;-40
2022/02/02 09:51:23;;;;;;;16.47;5.17;;;8.00;99.90;;;;;;5089267;28;20429;-41
2022/02/02 09:53:58;;;;;;;19.23;4.80;;;8.00;99.90;;;;;;5089355;28;20670;-40
2022/02/02 10:04:17;;;;;;;19.53;4.90;;;8.10;99.90;;;;;;5089498;28;20449;-40
2022/02/02 10:09:28;;;;;;;20.10;5.30;;;8.00;99.90;;;;;;5088343;28;20418;-43
2022/02/02 10:14:39;;;;;;;17.03;4.90;;;8.00;99.90;;;;;;5086243;28;20444;-42
2022/02/02 10:17:10;;;;;;;11.73;4.67;;;8.10;99.90;;;;;;5089112;28;20864;-41
2022/02/02 10:19:37;;;;;;;12.93;4.40;;;7.90;99.90;;;;;;5089151;28;20784;-42
2022/02/02 10:22:28;;;;;;;19.83;4.90;;;8.00;99.90;;;;;;5087971;28;20753;-40
2022/02/02 10:24:59;;;;;;;20.83;7.33;;;8.20;99.90;;;;;;5082866;28;20488;-41
2022/02/02 10:27:36;;;;;;;15.13;4.03;;;8.30;99.90;;;;;;5088052;28;20500;-40
2022/02/02 10:30:10;;;;;;;19.40;4.47;;;8.70;99.90;;;;;;5088285;28;20425;-43
2022/02/02 10:32:42;;;;;;;18.00;5.57;;;8.80;99.90;;;;;;5088769;28;20945;-41
2022/02/02 10:35:09;;;;;;;16.03;3.87;;;9.00;99.90;;;;;;5088845;28;20476;-41
2022/02/02 10:37:36;;;;;;;13.97;3.83;;;9.10;99.90;;;;;;5088779;28;20954;-41
2022/02/02 10:40:03;;;;;;;13.80;4.37;;;9.20;99.90;;;;;;5081361;28;20503;-41
2022/02/02 10:42:38;;;;;;;10.37;4.33;;;9.10;99.90;;;;;;5078922;28;20427;-41
2022/02/02 10:45:25;;;;;;;14.33;3.83;;;9.00;99.90;;;;;;5088532;28;20440;-40
2022/02/02 10:48:00;;;;;;;15.30;4.20;;;9.00;99.90;;;;;;5088405;28;20603;-42
2022/02/02 10:50:30;;;;;;;13.40;3.47;;;9.10;99.90;;;;;;5088183;28;20923;-41
2022/02/02 10:53:16;;;;;;;18.70;4.10;;;9.10;99.90;;;;;;5088621;28;20426;-40
2022/02/02 10:56:05;;;;;;;14.17;3.90;;;9.30;99.90;;;;;;5077521;28;20450;-41
2022/02/02 11:01:31;;;;;;;15.03;4.70;;;9.30;99.90;;;;;;5071548;28;20419;-41
2022/02/02 11:06:41;;;;;;;16.70;4.20;;;9.40;99.90;;;;;;5087386;28;20843;-40
2022/02/02 11:09:13;;;;;;;13.30;3.97;;;9.20;99.90;;;;;;5087740;28;20450;-40
2022/02/02 11:11:40;;;;;;;10.63;4.07;;;9.30;99.90;;;;;;5073107;28;20422;-41
2022/02/02 11:14:29;;;;;;;15.27;3.83;;;9.50;99.90;;;;;;5088133;28;20852;-40
2022/02/02 11:17:08;;;;;;;12.00;3.37;;;9.30;99.90;;;;;;5073566;28;20469;-43
2022/02/02 11:19:37;;;;;;;16.57;4.07;;;9.50;99.90;;;;;;5087113;28;20509;-41
2022/02/02 11:22:30;;;;;;;20.07;3.17;;;9.50;99.90;;;;;;5087085;28;20853;-41
2022/02/02 11:24:56;;;;;;;15.10;4.67;;;9.70;99.90;;;;;;5084470;28;20439;-42
2022/02/02 11:27:42;;;;;;;9.77;3.17;;;9.70;99.90;;;;;;5080795;28;20469;-41
2022/02/02 11:30:22;;;;;;;14.60;3.43;;;9.80;99.90;;;;;;5086911;28;20454;-42
2022/02/02 11:32:52;;;;;;;9.50;3.40;;;9.70;99.90;;;;;;5088109;28;20415;-41
2022/02/02 11:35:53;;;;;;;9.50;3.37;;;9.80;99.90;;;;;;5087597;28;20419;-40
2022/02/02 11:38:26;;;;;;;8.97;3.00;;;9.70;99.90;;;;;;5087549;28;20434;-41
2022/02/02 11:41:13;;;;;;;13.37;2.93;;;9.80;99.90;;;;;;5079569;28;20430;-41
2022/02/02 11:44:04;;;;;;;14.57;3.93;;;9.90;99.90;;;;;;5087334;28;20421;-41
2022/02/02 11:46:50;;;;;;;10.70;3.43;;;10.00;99.90;;;;;;5085350;28;20422;-43
2022/02/02 11:49:51;;;;;;;9.80;3.33;;;10.00;99.90;;;;;;5087892;28;20423;-42
2022/02/02 11:52:37;;;;;;;13.17;4.30;;;9.80;99.90;;;;;;5082389;28;20780;-44
2022/02/02 11:55:07;;;;;;;12.43;3.20;;;9.60;99.90;;;;;;5083979;28;20505;-41
2022/02/02 11:58:12;;;;;;;14.77;4.37;;;9.60;99.90;;;;;;5081832;28;20440;-41
2022/02/02 12:03:42;;;;;;;13.43;4.40;;;9.20;99.90;;;;;;5087141;28;20457;-41
2022/02/02 12:06:32;;;;;;;19.53;3.50;;;9.20;99.90;;;;;;5087731;28;20909;-43
2022/02/02 12:46:07;;;;;;;9.87;3.47;;;9.00;99.90;;;;;;5088090;28;20422;-41
2022/02/02 12:48:18;;;;;;;16.70;2.87;;;9.00;99.90;;;;;;5090735;28;20555;-41
2022/02/02 12:56:34;;;;;;;8.77;2.73;;;9.20;99.90;;;;;;5085634;28;20274;-41
2022/02/02 13:02:12;;;;;;;10.80;3.20;;;9.40;99.90;;;;;;5090485;28;20476;-41
2022/02/02 13:04:41;;;;;;;15.47;4.57;;;9.50;99.90;;;;;;5090809;28;20916;-41
2022/02/02 13:07:08;;;;;;;13.40;3.83;;;9.70;99.90;;;;;;5089172;28;20855;-43
2022/02/02 13:09:35;;;;;;;13.00;3.40;;;9.80;99.90;;;;;;5090179;28;20844;-40
2022/02/02 13:18:15;;;;;;;18.30;4.80;;;9.70;99.90;;;;;;5076998;28;20439;-40
2022/02/02 13:23:32;;;;;;;15.13;5.40;;;9.50;99.90;;;;;;5089658;28;20958;-40
2022/02/02 13:26:03;;;;;;;14.60;3.73;;;9.80;99.90;;;;;;5073604;28;20514;-41
2022/02/02 13:42:46;;;;;;;9.83;3.50;;;9.70;99.90;;;;;;5081611;28;20450;-40
2022/02/02 14:01:48;;;;;;;11.00;4.63;;;10.90;99.90;;;;;;5087458;28;20434;-41
2022/02/02 14:07:40;;;;;;;10.10;3.60;;;11.20;99.90;;;;;;5033374;28;20564;-42
2022/02/02 14:10:25;;;;;;;12.87;4.00;;;11.10;99.90;;;;;;5088706;28;20458;-41
2022/02/02 14:32:34;;;;;;;9.90;3.33;;;11.40;99.90;;;;;;5030988;28;20437;-41
2022/02/02 14:35:00;;;;;;;8.40;2.87;;;11.20;99.90;;;;;;5085664;28;20430;-41
2022/02/02 14:37:35;;;;;;;12.50;3.43;;;11.20;99.90;;;;;;5088571;28;20509;-40
2022/02/02 14:40:12;;;;;;;13.63;3.50;;;11.20;99.90;;;;;;5087342;28;20429;-41
2022/02/02 14:42:39;;;;;;;9.40;3.37;;;11.20;99.90;;;;;;5077459;28;20438;-41
2022/02/02 14:45:11;;;;;;;9.73;3.40;;;11.10;99.90;;;;;;5088491;28;20492;-41
2022/02/02 14:47:41;;;;;;;11.63;4.00;;;10.90;99.90;;;;;;5088460;28;20514;-40
2022/02/02 14:52:51;;;;;;;10.57;3.23;;;10.80;99.90;;;;;;5088659;28;20423;-40
2022/02/02 15:27:34;;;;;;;11.67;3.57;;;10.00;99.90;;;;;;5079578;28;20474;-41
2022/02/02 15:30:21;;;;;;;10.90;3.30;;;9.70;99.90;;;;;;5083325;28;20607;-41
2022/02/02 15:32:48;;;;;;;10.50;3.37;;;9.90;99.90;;;;;;5087795;28;20486;-40
2022/02/02 15:35:14;;;;;;;8.67;3.20;;;9.90;99.90;;;;;;5087806;28;20802;-41
2022/02/02 15:37:55;;;;;;;11.47;3.50;;;10.00;99.90;;;;;;5087978;28;20422;-41
2022/02/02 15:40:26;;;;;;;9.47;3.50;;;10.00;99.90;;;;;;5087182;28;20195;-41
2022/02/02 15:58:52;;;;;;;15.33;4.47;;;9.30;99.90;;;;;;5073305;28;20448;-41
2022/02/02 16:02:20;;;;;;;13.77;3.80;;;9.20;99.90;;;;;;5086798;28;20838;-43
2022/02/02 16:04:16;;;;;;;15.00;4.20;;;9.20;99.90;;;;;;5064504;28;20803;-41
2022/02/02 16:06:41;;;;;;;11.47;3.93;;;9.30;99.90;;;;;;5087586;28;21004;-41
2022/02/02 16:11:39;;;;;;;14.77;4.50;;;9.50;99.90;;;;;;5084422;28;20187;-40
2022/02/02 16:14:07;;;;;;;11.33;4.60;;;9.00;99.90;;;;;;5075918;28;20418;-44
2022/02/02 16:19:22;;;;;;;12.73;3.90;;;9.10;99.90;;;;;;5087700;28;20865;-40
2022/02/02 16:25:03;;;;;;;12.83;5.33;;;8.80;99.90;;;;;;5087170;28;20584;-41
2022/02/02 16:38:13;;;;;;;6.13;3.23;;;8.50;99.90;;;;;;5087123;28;20474;-40
2022/02/02 16:40:42;;;;;;;12.80;4.20;;;8.40;99.90;;;;;;5086899;28;20427;-41
2022/02/02 16:43:13;;;;;;;13.90;5.00;;;8.60;99.90;;;;;;5079297;28;20462;-41
2022/02/02 16:45:45;;;;;;;10.17;4.70;;;8.40;99.90;;;;;;5087036;28;20422;-42
2022/02/02 16:48:12;;;;;;;9.50;4.87;;;8.30;99.90;;;;;;5087332;28;20864;-41
2022/02/02 16:50:41;;;;;;;13.70;4.67;;;8.30;99.90;;;;;;5086477;28;20932;-41
2022/02/02 16:53:26;;;;;;;10.37;3.83;;;8.30;99.90;;;;;;5086946;28;20473;-41
2022/02/02 17:30:47;;;;;;;12.70;5.80;;;7.80;99.90;;;;;;5089391;28;20453;-41
2022/02/02 17:36:05;;;;;;;12.07;4.70;;;7.50;99.90;;;;;;5087223;28;20441;-40
2022/02/02 18:13:49;;;;;;;18.37;5.97;;;7.30;99.90;;;;;;5082728;28;20434;-41
2022/02/02 18:21:10;;;;;;;12.60;5.37;;;7.00;99.90;;;;;;5081632;28;20426;-40
2022/02/02 18:23:49;;;;;;;17.13;6.53;;;7.10;99.90;;;;;;5088757;28;20430;-40
2022/02/02 18:26:22;;;;;;;13.37;5.07;;;6.90;99.90;;;;;;5088866;28;20831;-40
2022/02/02 18:37:23;;;;;;;17.03;7.07;;;7.20;99.90;;;;;;5088247;28;20502;-41
2022/02/02 18:53:45;;;;;;;15.03;6.27;;;7.20;99.90;;;;;;5087856;28;20637;-41
2022/02/02 18:55:37;;;;;;;16.13;7.40;;;7.10;99.90;;;;;;5081706;28;20438;-40
2022/02/02 20:05:46;;;;;;;16.77;7.00;;;7.50;99.90;;;;;;5086832;28;20429;-44
2022/02/02 20:08:58;;;;;;;16.00;7.87;;;7.30;99.90;;;;;;5085757;28;20466;-40
2022/02/02 20:11:06;;;;;;;13.80;7.30;;;7.40;99.90;;;;;;5070217;28;21073;-41
2022/02/02 20:13:38;;;;;;;14.13;8.57;;;7.60;99.90;;;;;;5083256;28;20430;-41
2022/02/02 20:16:04;;;;;;;17.60;6.90;;;7.50;99.90;;;;;;5082937;28;20426;-41
2022/02/02 20:18:35;;;;;;;16.40;7.60;;;7.50;99.90;;;;;;5084854;28;20764;-40
2022/02/02 20:21:05;;;;;;;20.57;7.00;;;7.60;99.90;;;;;;5067392;28;20539;-43
2022/02/02 20:23:31;;;;;;;14.60;7.10;;;7.50;99.90;;;;;;5085251;28;20445;-40
2022/02/02 20:25:57;;;;;;;19.50;7.40;;;7.50;99.90;;;;;;5086709;28;20509;-40
2022/02/02 20:28:22;;;;;;;14.80;8.07;;;7.50;99.90;;;;;;5085923;28;20549;-40
2022/02/02 20:30:49;;;;;;;14.90;6.77;;;7.70;99.90;;;;;;5083615;28;20184;-41
2022/02/02 20:33:14;;;;;;;15.50;7.70;;;7.70;99.90;;;;;;5086335;28;20612;-40
2022/02/02 20:35:40;;;;;;;14.97;7.60;;;7.70;99.90;;;;;;5086276;28;20513;-41
2022/02/02 20:38:06;;;;;;;17.93;8.20;;;7.70;99.90;;;;;;5090107;28;20190;-44
2022/02/02 20:40:32;;;;;;;17.17;8.30;;;7.80;99.90;;;;;;5090130;28;20422;-40
2022/02/02 20:43:06;;;;;;;15.37;6.90;;;7.60;99.90;;;;;;5090969;28;20184;-41
2022/02/02 21:14:44;;;;;;;20.13;9.77;;;7.90;99.90;;;;;;5088129;28;20425;-41
2022/02/02 21:17:18;;;;;;;20.60;9.47;;;8.10;99.90;;;;;;5087786;28;20426;-40
2022/02/02 21:22:17;;;;;;;15.43;9.53;;;7.90;99.90;;;;;;5087485;28;20426;-44
2022/02/02 21:24:54;;;;;;;23.70;10.50;;;8.20;99.90;;;;;;5088396;28;20803;-41
2022/02/02 21:27:25;;;;;;;22.30;10.13;;;8.10;99.90;;;;;;5089931;28;20509;-42
2022/02/02 21:29:51;;;;;;;20.10;10.43;;;7.80;99.90;;;;;;5083766;28;20427;-41
2022/02/02 21:32:19;;;;;;;24.93;10.30;;;8.20;99.90;;;;;;5085972;28;20414;-42
2022/02/02 21:34:45;;;;;;;20.60;10.37;;;7.90;99.90;;;;;;5088276;28;20426;-40
2022/02/02 21:37:11;;;;;;;19.13;10.73;;;8.10;99.90;;;;;;5088756;28;20414;-40
2022/02/02 21:39:44;;;;;;;22.93;11.30;;;8.00;99.90;;;;;;5088990;28;20426;-40
2022/02/02 21:42:13;;;;;;;23.73;12.20;;;7.90;99.90;;;;;;5088058;28;20457;-44
2022/02/02 21:44:41;;;;;;;23.20;12.23;;;7.90;99.90;;;;;;5083281;28;20435;-40
2022/02/02 21:47:10;;;;;;;21.53;11.33;;;7.90;99.90;;;;;;5083034;28;20423;-40
2022/02/02 21:49:36;;;;;;;22.20;12.47;;;7.80;99.90;;;;;;5087872;28;20442;-42
2022/02/02 21:52:06;;;;;;;20.10;10.73;;;7.90;99.90;;;;;;5089142;28;20507;-40
2022/02/02 21:54:32;;;;;;;21.37;12.40;;;8.00;99.90;;;;;;5087308;28;20469;-40
2022/02/02 21:56:59;;;;;;;22.77;13.13;;;7.90;99.90;;;;;;5086496;28;20470;-41
2022/02/02 21:59:25;;;;;;;21.27;14.10;;;7.90;99.90;;;;;;5083805;28;20432;-40
2022/02/02 22:01:51;;;;;;;22.43;13.63;;;8.00;99.90;;;;;;5084294;28;20415;-41
2022/02/02 22:04:17;;;;;;;22.70;14.30;;;7.90;99.90;;;;;;5087701;28;20651;-41
2022/02/02 22:06:42;;;;;;;23.57;14.93;;;8.00;99.90;;;;;;5089038;28;20419;-43
2022/02/02 22:09:08;;;;;;;30.20;16.20;;;8.10;99.90;;;;;;5088650;28;20699;-40
2022/02/02 22:11:34;;;;;;;30.50;15.27;;;8.00;99.90;;;;;;5079400;28;20600;-41
2022/02/02 22:14:08;;;;;;;21.70;13.47;;;8.00;99.90;;;;;;5080353;28;20418;-40
2022/02/02 22:16:35;;;;;;;26.13;14.53;;;7.90;99.90;;;;;;5080201;28;20234;-40
2022/02/02 22:19:01;;;;;;;22.20;14.70;;;8.10;99.90;;;;;;5087667;28;20798;-40
2022/02/02 22:21:27;;;;;;;25.90;16.07;;;8.20;99.90;;;;;;5086002;28;20426;-41
2022/02/02 22:23:53;;;;;;;24.50;15.00;;;8.20;99.90;;;;;;5088366;28;20192;-40
2022/02/02 22:26:20;;;;;;;27.33;15.70;;;8.10;99.90;;;;;;5088662;28;20189;-42
2022/02/02 22:28:46;;;;;;;23.83;16.10;;;8.20;99.90;;;;;;5088759;28;20590;-40
2022/02/02 22:31:12;;;;;;;25.93;16.30;;;8.20;99.90;;;;;;5079277;28;20434;-42
2022/02/02 22:33:37;;;;;;;24.03;16.20;;;8.20;99.90;;;;;;5088258;28;20204;-41
2022/02/02 22:36:03;;;;;;;23.80;15.97;;;8.20;99.90;;;;;;5088475;28;20411;-41
2022/02/02 22:38:30;;;;;;;26.30;16.53;;;8.30;99.90;;;;;;5088846;28;20628;-40
2022/02/02 22:40:57;;;;;;;24.40;15.20;;;8.30;99.90;;;;;;5086713;28;20422;-40
2022/02/02 22:43:23;;;;;;;27.53;15.57;;;8.30;99.90;;;;;;5088059;28;20436;-42
2022/02/02 22:45:51;;;;;;;21.50;14.87;;;8.30;99.90;;;;;;5079570;28;20533;-40
2022/02/02 22:48:20;;;;;;;24.43;16.60;;;8.50;99.90;;;;;;5069657;28;20527;-40
2022/02/02 22:50:46;;;;;;;25.43;16.30;;;8.40;99.90;;;;;;5087104;28;20906;-41
2022/02/02 22:53:12;;;;;;;24.37;16.00;;;8.30;99.90;;;;;;5088522;28;20414;-40
2022/02/02 22:55:38;;;;;;;25.93;17.57;;;8.60;99.90;;;;;;5088220;28;20446;-41
2022/02/02 22:58:04;;;;;;;19.43;14.80;;;8.50;99.90;;;;;;5088722;28;20216;-41
2022/02/02 23:00:34;;;;;;;26.33;16.07;;;8.40;99.90;;;;;;5077213;28;20485;-40
2022/02/02 23:03:02;;;;;;;25.83;16.87;;;8.70;99.90;;;;;;5088516;28;20423;-40
2022/02/02 23:07:59;;;;;;;23.13;15.93;;;8.50;99.90;;;;;;5083223;28;20558;-40
2022/02/02 23:10:24;;;;;;;23.80;15.80;;;8.50;99.90;;;;;;5087708;28;20515;-41
2022/02/02 23:12:50;;;;;;;26.83;17.67;;;8.60;99.90;;;;;;5088416;28;20505;-40
2022/02/02 23:15:24;;;;;;;29.60;17.60;;;8.30;99.90;;;;;;5080537;28;20193;-40
2022/02/02 23:17:50;;;;;;;26.77;16.60;;;8.30;99.90;;;;;;5080662;28;20620;-41
2022/02/02 23:20:15;;;;;;;26.53;16.57;;;8.40;99.90;;;;;;5087677;28;20461;-41
2022/02/02 23:22:45;;;;;;;28.33;16.83;;;8.30;99.90;;;;;;5086812;28;20448;-40
2022/02/02 23:25:13;;;;;;;28.10;17.33;;;8.30;99.90;;;;;;5088143;28;20224;-40
2022/02/02 23:27:44;;;;;;;28.00;16.67;;;8.30;99.90;;;;;;5087920;28;20956;-40
2022/02/02 23:30:14;;;;;;;25.90;16.53;;;8.10;99.90;;;;;;5081748;28;20548;-43
2022/02/02 23:32:40;;;;;;;29.50;17.80;;;8.30;99.90;;;;;;5080233;28;20525;-41
2022/02/02 23:35:09;;;;;;;24.50;16.10;;;8.30;99.90;;;;;;5088078;28;20533;-42
2022/02/02 23:37:37;;;;;;;24.80;15.70;;;8.30;99.90;;;;;;5086640;28;20908;-41
2022/02/02 23:40:04;;;;;;;24.63;15.53;;;8.30;99.90;;;;;;5087529;28;20475;-41
2022/02/02 23:42:35;;;;;;;24.27;15.43;;;8.20;99.90;;;;;;5087713;28;20445;-40
2022/02/02 23:45:00;;;;;;;22.03;14.17;;;8.50;99.90;;;;;;5082435;28;20439;-41
2022/02/02 23:47:29;;;;;;;21.80;14.37;;;8.30;99.90;;;;;;5081365;28;20434;-41
2022/02/02 23:50:02;;;;;;;23.90;13.90;;;8.20;99.90;;;;;;5087174;28;20253;-40
2022/02/02 23:52:55;;;;;;;25.57;15.87;;;8.20;99.90;;;;;;5087832;28;20745;-41
2022/02/02 23:55:26;;;;;;;22.30;14.27;;;8.20;99.90;;;;;;5087367;28;20426;-41
